Time;durP1;ratioP1;P1;durP2;ratioP2;P2;SDS_P1;SDS_P2;PMS_P1;PMS_P2;Temp;Humidity;BMP_temperature;BMP_pressure;BME280_temperature;BME280_humidity;BME280_pressure;Samples;Min_cycle;Max_cycle;Signal;HPM_P1;HPM_P2
2021/11/02 00:02:11;;;;;;;9.85;5.45;;;;;;;10.42;86.76;99300.00;4961076;28;20114;-78
2021/11/02 00:04:36;;;;;;;8.65;5.80;;;;;;;10.40;85.98;99295.66;4964937;28;20074;-79
2021/11/02 00:07:03;;;;;;;9.27;6.07;;;;;;;10.40;86.32;99295.66;4935616;28;20035;-78
2021/11/02 00:09:30;;;;;;;8.85;5.50;;;;;;;10.42;86.10;99294.72;4968439;28;20031;-79
2021/11/02 00:11:56;;;;;;;10.00;5.85;;;;;;;10.41;86.36;99292.13;4950777;28;20039;-77
2021/11/02 00:14:24;;;;;;;10.85;5.65;;;;;;;10.36;86.54;99286.13;4968503;28;20462;-78
2021/11/02 00:16:56;;;;;;;8.63;5.22;;;;;;;10.28;86.66;99288.94;4970885;28;20127;-78
2021/11/02 00:19:23;;;;;;;8.90;5.68;;;;;;;10.27;86.55;99292.44;4969137;28;20045;-78
2021/11/02 00:21:51;;;;;;;10.73;5.50;;;;;;;10.25;86.44;99286.34;4950729;28;20038;-78
2021/11/02 00:24:37;;;;;;;8.57;4.95;;;;;;;10.19;86.89;99287.38;4947324;28;20046;-79
2021/11/02 00:27:02;;;;;;;11.18;5.53;;;;;;;10.19;86.61;99279.47;4970051;28;20509;-78
2021/11/02 00:29:27;;;;;;;7.32;4.65;;;;;;;10.23;86.80;99275.81;4969337;28;20054;-78
2021/11/02 00:31:53;;;;;;;9.50;5.60;;;;;;;10.27;86.35;99266.06;4973147;28;20107;-79
2021/11/02 00:34:18;;;;;;;7.68;4.97;;;;;;;10.27;86.69;99266.97;4951446;28;20051;-78
2021/11/02 00:36:44;;;;;;;10.05;5.22;;;;;;;10.28;86.52;99262.56;4968787;28;20035;-78
2021/11/02 00:39:10;;;;;;;9.23;5.70;;;;;;;10.33;86.16;99260.69;4967038;28;20061;-78
2021/11/02 00:41:35;;;;;;;7.68;4.80;;;;;;;10.37;86.20;99262.31;4934679;28;20414;-78
2021/11/02 00:44:00;;;;;;;10.25;6.00;;;;;;;10.39;86.11;99255.25;4949755;28;20035;-78
2021/11/02 00:46:31;;;;;;;8.10;4.57;;;;;;;10.37;86.32;99257.03;4966543;28;20039;-79
2021/11/02 00:48:58;;;;;;;7.50;5.10;;;;;;;10.37;85.95;99259.69;4950143;28;20492;-78
2021/11/02 00:51:23;;;;;;;9.57;5.13;;;;;;;10.35;85.77;99258.88;4958525;28;20043;-79
2021/11/02 00:53:49;;;;;;;9.25;4.93;;;;;;;10.31;86.13;99251.94;4950323;28;20035;-79
2021/11/02 00:56:15;;;;;;;8.48;5.28;;;;;;;10.31;86.36;99247.53;4966563;28;20027;-78
2021/11/02 00:58:41;;;;;;;8.60;5.47;;;;;;;10.32;86.45;99248.38;4951120;28;20046;-78
2021/11/02 01:01:06;;;;;;;10.80;4.88;;;;;;;10.29;86.31;99243.19;4948181;28;20053;-78
2021/11/02 01:03:33;;;;;;;8.52;4.95;;;;;;;10.28;86.38;99246.75;4968452;28;20122;-78
2021/11/02 01:05:58;;;;;;;9.73;4.72;;;;;;;10.27;86.13;99245.88;4944246;28;20043;-78
2021/11/02 01:08:24;;;;;;;10.15;4.78;;;;;;;10.28;86.38;99247.59;4968326;28;20054;-77
2021/11/02 01:10:50;;;;;;;7.68;4.70;;;;;;;10.29;86.83;99249.31;4948474;28;20035;-78
2021/11/02 01:13:16;;;;;;;9.02;4.82;;;;;;;10.35;86.96;99245.69;4935014;28;20058;-78
2021/11/02 01:15:41;;;;;;;9.43;5.32;;;;;;;10.36;86.38;99242.13;4947725;28;20054;-79
2021/11/02 01:18:07;;;;;;;8.40;4.43;;;;;;;10.36;86.77;99236.88;4966299;28;20030;-78
2021/11/02 01:20:34;;;;;;;9.45;5.53;;;;;;;10.34;86.04;99236.03;4934119;28;20481;-77
2021/11/02 01:23:01;;;;;;;8.85;4.38;;;;;;;10.34;86.69;99241.31;4949705;28;20062;-78
2021/11/02 01:25:26;;;;;;;6.90;4.07;;;;;;;10.33;86.18;99236.09;4949605;28;20505;-78
2021/11/02 01:27:52;;;;;;;13.23;5.15;;;;;;;10.26;86.33;99232.69;4936663;28;20513;-78
2021/11/02 01:30:21;;;;;;;6.82;3.90;;;;;;;10.25;86.43;99228.34;4951245;28;20035;-79
2021/11/02 01:32:47;;;;;;;9.60;4.35;;;;;;;10.25;86.43;99229.19;4949989;28;20034;-78
2021/11/02 01:35:14;;;;;;;6.32;4.43;;;;;;;10.29;86.41;99233.50;4948460;28;20027;-78
2021/11/02 01:37:41;;;;;;;7.45;4.40;;;;;;;10.25;86.39;99225.69;4971866;28;20026;-77
2021/11/02 01:40:10;;;;;;;8.30;4.20;;;;;;;10.25;86.47;99229.19;4953412;28;20043;-78
2021/11/02 01:42:36;;;;;;;7.70;3.95;;;;;;;10.29;86.70;99230.00;4931667;28;20038;-78
2021/11/02 01:45:06;;;;;;;6.78;4.30;;;;;;;10.30;86.57;99229.97;4949219;28;20042;-78
2021/11/02 01:47:34;;;;;;;7.88;4.43;;;;;;;10.32;86.20;99227.28;4931873;28;20035;-78
2021/11/02 01:50:00;;;;;;;7.97;4.40;;;;;;;10.27;86.01;99230.06;4949654;28;20035;-79
2021/11/02 01:52:33;;;;;;;11.15;4.78;;;;;;;10.24;86.49;99226.59;4932274;28;20174;-76
2021/11/02 01:54:58;;;;;;;8.70;4.20;;;;;;;10.23;86.40;99227.50;4948854;28;20035;-78
2021/11/02 01:57:28;;;;;;;10.75;4.35;;;;;;;10.23;86.57;99232.78;4932622;28;20053;-79
2021/11/02 01:59:55;;;;;;;8.25;5.22;;;;;;;10.26;87.00;99227.41;4949603;28;20419;-78
2021/11/02 02:02:33;;;;;;;8.15;4.85;;;;;;;10.22;86.78;99220.50;4946512;28;20031;-78
2021/11/02 02:05:07;;;;;;;9.52;4.30;;;;;;;10.23;86.95;99222.22;4932147;28;20041;-79
2021/11/02 02:08:02;;;;;;;8.65;4.43;;;;;;;10.22;86.76;99220.50;4921593;28;20410;-78
2021/11/02 02:10:46;;;;;;;7.80;4.53;;;;;;;10.24;87.39;99222.22;4944008;29;20111;-78
2021/11/02 02:13:22;;;;;;;9.60;3.60;;;;;;;10.27;86.94;99223.88;4962753;28;20117;-79
2021/11/02 02:16:14;;;;;;;8.02;4.00;;;;;;;10.26;86.87;99222.16;4948967;28;20023;-78
2021/11/02 02:19:11;;;;;;;9.23;5.77;;;;;;;10.27;87.25;99226.50;4928370;29;20529;-77
2021/11/02 02:22:10;;;;;;;7.57;4.50;;;;;;;10.25;87.10;99213.38;4961788;28;20279;-77
2021/11/02 02:25:20;;;;;;;8.80;5.22;;;;;;;10.27;86.98;99213.31;4933136;28;20078;-77
2021/11/02 02:28:13;;;;;;;11.05;5.25;;;;;;;10.27;87.15;99206.34;4908746;29;20139;-77
2021/11/02 02:30:57;;;;;;;8.02;4.40;;;;;;;10.28;87.09;99215.09;4948355;28;20498;-78
2021/11/02 02:33:28;;;;;;;11.00;4.65;;;;;;;10.28;86.96;99212.47;4962019;28;20114;-78
2021/11/02 02:35:55;;;;;;;9.18;4.47;;;;;;;10.26;86.71;99211.59;4947988;28;20139;-78
2021/11/02 02:38:22;;;;;;;10.15;4.47;;;;;;;10.19;87.09;99212.66;4930682;28;20031;-78
2021/11/02 02:40:51;;;;;;;7.03;3.83;;;;;;;10.17;87.02;99206.56;4947715;28;20038;-78
2021/11/02 02:43:18;;;;;;;8.63;3.90;;;;;;;10.20;87.18;99195.94;4963339;28;20051;-78
2021/11/02 02:45:45;;;;;;;8.02;4.03;;;;;;;10.18;86.66;99193.34;4948257;28;20402;-77
2021/11/02 02:48:14;;;;;;;8.00;3.88;;;;;;;10.21;86.68;99198.53;4930605;28;20031;-79
2021/11/02 02:50:41;;;;;;;8.15;3.90;;;;;;;10.21;86.12;99195.88;4948922;28;20029;-79
2021/11/02 02:53:08;;;;;;;8.05;3.95;;;;;;;10.19;86.69;99192.44;4946610;28;20027;-79
2021/11/02 02:55:34;;;;;;;6.32;3.70;;;;;;;10.18;86.46;99184.56;4948877;28;20038;-79
2021/11/02 02:58:01;;;;;;;8.05;4.25;;;;;;;10.21;86.94;99187.13;4949160;28;20039;-79
2021/11/02 03:00:27;;;;;;;8.70;3.90;;;;;;;10.18;86.61;99187.22;4914582;29;20089;-78
2021/11/02 03:02:55;;;;;;;8.35;3.97;;;;;;;10.17;86.92;99185.50;4927050;29;20450;-79
2021/11/02 03:05:24;;;;;;;8.60;3.80;;;;;;;10.12;86.94;99185.59;4966731;28;20045;-79
2021/11/02 03:07:56;;;;;;;7.97;4.72;;;;;;;10.13;87.13;99178.56;4930958;28;20095;-79
2021/11/02 03:10:24;;;;;;;8.73;4.45;;;;;;;10.20;87.08;99188.03;4953003;28;20057;-79
2021/11/02 03:12:51;;;;;;;11.80;4.50;;;;;;;10.25;86.57;99186.16;4946415;28;20402;-78
2021/11/02 03:15:47;;;;;;;8.45;4.75;;;;;;;10.28;86.44;99178.19;4945900;28;20046;-77
2021/11/02 03:54:32;;;;;;;12.73;7.55;;;;;;;10.19;87.28;99173.09;4946728;28;20032;-79
2021/11/02 03:55:07;;;;;;;13.10;8.45;;;;;;;10.24;87.00;99176.50;4950577;28;20034;-79
2021/11/02 03:57:52;;;;;;;12.20;8.05;;;;;;;10.26;86.93;99175.53;4936997;28;20485;-79
2021/11/02 04:26:09;;;;;;;15.00;9.63;;;;;;;10.21;87.63;99176.56;4948819;28;20035;-78
2021/11/02 04:31:23;;;;;;;14.27;8.18;;;;;;;10.34;86.79;99174.50;4929959;29;20036;-79
2021/11/02 04:43:02;;;;;;;13.02;8.88;;;;;;;10.37;86.82;99166.50;4948179;29;20094;-77
2021/11/02 05:10:00;;;;;;;10.15;6.97;;;;;;;10.42;86.57;99170.75;4943054;29;20023;-78
2021/11/02 05:54:52;;;;;;;18.70;10.55;;;;;;;10.26;87.57;99161.50;4942927;28;20031;-78
2021/11/02 05:57:24;;;;;;;14.02;8.98;;;;;;;10.25;87.18;99157.16;4959525;28;20025;-79
2021/11/02 06:00:21;;;;;;;14.43;8.90;;;;;;;10.26;87.52;99156.22;4940840;29;20077;-78
2021/11/02 06:28:02;;;;;;;12.77;8.02;;;;;;;10.09;87.01;99136.47;4967124;28;20054;-78
2021/11/02 06:30:48;;;;;;;12.27;6.60;;;;;;;10.03;87.40;99146.28;4969600;28;20042;-78
2021/11/02 06:33:37;;;;;;;14.85;7.32;;;;;;;10.04;87.61;99148.03;4947325;28;20520;-78
2021/11/02 06:44:48;;;;;;;10.73;7.65;;;;;;;9.99;87.35;99149.91;4944635;28;20465;-78
2021/11/02 06:47:55;;;;;;;7.97;6.28;;;;;;;10.02;87.80;99155.97;4967532;28;20043;-79
2021/11/02 06:56:36;;;;;;;8.35;6.15;;;;;;;10.04;87.49;99154.16;4948963;28;20490;-79
2021/11/02 07:19:06;;;;;;;8.95;6.50;;;;;;;10.24;86.73;99171.22;4946173;28;20659;-78
2021/11/02 07:24:16;;;;;;;10.80;6.40;;;;;;;10.33;86.76;99170.16;4950752;28;20051;-78
2021/11/02 08:47:38;;;;;;;10.15;6.25;;;;;;;11.47;82.80;99151.84;4970109;28;20035;-79
2021/11/02 08:50:06;;;;;;;11.02;5.97;;;;;;;11.50;82.02;99151.75;4968058;28;20053;-79
2021/11/02 08:52:33;;;;;;;10.45;6.45;;;;;;;11.52;82.39;99149.91;4953074;28;20074;-78
2021/11/02 08:54:59;;;;;;;13.00;5.90;;;;;;;11.59;81.64;99152.31;4950823;28;20042;-79
2021/11/02 08:57:25;;;;;;;9.18;5.15;;;;;;;11.59;80.94;99154.09;4969408;28;20035;-78
2021/11/02 08:59:52;;;;;;;12.45;6.10;;;;;;;11.60;81.31;99150.53;4968655;28;20053;-78
2021/11/02 09:02:22;;;;;;;11.57;7.18;;;;;;;11.70;81.48;99149.31;4936166;28;20042;-78
2021/11/02 09:04:52;;;;;;;8.32;5.60;;;;;;;11.75;81.34;99151.81;4967542;28;20070;-78
2021/11/02 09:07:26;;;;;;;10.63;5.53;;;;;;;11.77;80.79;99157.94;4935912;28;20062;-78
2021/11/02 09:09:53;;;;;;;8.75;5.13;;;;;;;11.83;80.25;99152.44;4948761;28;20069;-79
2021/11/02 09:12:19;;;;;;;8.65;5.43;;;;;;;11.91;80.23;99162.78;4968308;28;20042;-79
2021/11/02 09:14:48;;;;;;;13.63;6.05;;;;;;;11.89;79.40;99154.03;4946526;28;20041;-79
2021/11/02 09:17:14;;;;;;;10.13;5.20;;;;;;;11.88;79.58;99160.25;4972584;28;20107;-79
2021/11/02 09:19:41;;;;;;;7.03;4.20;;;;;;;11.88;78.88;99158.47;4933985;28;20406;-78
2021/11/02 09:22:11;;;;;;;6.53;4.07;;;;;;;11.83;79.21;99161.22;4936219;28;20161;-78
2021/11/02 09:24:42;;;;;;;10.90;5.13;;;;;;;11.89;79.57;99159.31;4954260;28;20401;-78
2021/11/02 09:27:07;;;;;;;8.90;5.53;;;;;;;11.78;80.30;99160.50;4968261;28;20441;-78
2021/11/02 09:29:35;;;;;;;11.52;7.45;;;;;;;11.84;79.75;99162.97;4968109;28;20039;-79
2021/11/02 09:32:01;;;;;;;9.60;5.65;;;;;;;11.84;78.70;99164.72;4948649;28;20409;-78
2021/11/02 09:34:28;;;;;;;10.88;5.05;;;;;;;11.84;78.95;99162.97;4967502;28;20065;-77
2021/11/02 09:37:05;;;;;;;7.35;4.43;;;;;;;11.94;79.03;99167.97;4966290;28;20498;-78
2021/11/02 09:39:38;;;;;;;11.13;7.47;;;;;;;11.86;79.64;99165.56;4967301;28;20125;-79
2021/11/02 09:42:07;;;;;;;7.47;4.03;;;;;;;11.96;79.02;99167.00;4943155;28;20085;-78
2021/11/02 09:44:43;;;;;;;16.00;10.38;;;;;;;12.06;77.82;99167.56;4928558;29;20050;-78
2021/11/02 09:48:06;;;;;;;8.45;4.57;;;;;;;12.13;78.59;99158.50;4960360;28;20036;-79
2021/11/02 09:50:52;;;;;;;6.03;3.65;;;;;;;12.21;78.09;99151.16;4913537;29;20051;-79
2021/11/02 09:53:32;;;;;;;7.70;3.72;;;;;;;12.29;77.18;99148.25;4911791;29;20060;-78
2021/11/02 09:56:24;;;;;;;11.02;5.70;;;;;;;12.13;76.64;99145.28;4953933;28;20129;-78
2021/11/02 09:59:09;;;;;;;4.78;2.88;;;;;;;12.11;76.23;99144.47;4957783;28;20096;-79
2021/11/02 10:02:07;;;;;;;7.38;3.17;;;;;;;12.11;77.04;99151.53;4967537;28;20047;-78
2021/11/02 10:05:04;;;;;;;5.97;3.20;;;;;;;12.11;76.50;99147.13;4965458;28;20042;-78
2021/11/02 10:08:00;;;;;;;6.75;3.42;;;;;;;12.10;76.90;99142.72;4927940;28;20044;-78
2021/11/02 10:10:39;;;;;;;6.40;3.25;;;;;;;12.20;75.83;99144.13;4969011;28;20039;-78
2021/11/02 10:13:15;;;;;;;5.93;3.00;;;;;;;12.13;75.86;99147.94;4966594;28;20118;-78
2021/11/02 10:16:06;;;;;;;6.88;3.50;;;;;;;12.12;75.95;99140.91;4968615;28;20565;-78
2021/11/02 10:18:43;;;;;;;5.70;2.70;;;;;;;12.16;75.86;99150.47;4967807;28;20502;-78
2021/11/02 10:21:43;;;;;;;5.85;3.33;;;;;;;12.17;75.53;99138.97;4973734;28;20623;-78
2021/11/02 10:24:40;;;;;;;8.75;3.55;;;;;;;12.27;75.43;99150.09;4951793;28;20114;-78
2021/11/02 10:27:24;;;;;;;6.80;2.88;;;;;;;12.17;74.94;99146.88;4970314;28;20043;-78
2021/11/02 10:30:12;;;;;;;6.63;2.92;;;;;;;12.12;75.07;99140.91;4957255;28;20035;-78
2021/11/02 10:32:44;;;;;;;7.15;3.63;;;;;;;12.19;75.15;99137.13;4972423;28;20042;-78
2021/11/02 10:35:44;;;;;;;6.65;3.30;;;;;;;12.36;74.29;99133.88;4971855;28;20126;-78
2021/11/02 10:38:18;;;;;;;8.27;3.42;;;;;;;12.56;74.53;99134.94;4956596;28;20035;-77
2021/11/02 10:40:56;;;;;;;6.32;3.13;;;;;;;12.68;74.38;99131.84;4967709;28;20050;-79
2021/11/02 10:43:33;;;;;;;5.68;2.85;;;;;;;12.67;74.14;99133.63;4939369;28;20036;-78
2021/11/02 10:46:14;;;;;;;5.88;2.83;;;;;;;12.71;73.33;99129.97;4938930;28;20043;-78
2021/11/02 10:48:43;;;;;;;5.43;3.15;;;;;;;12.71;74.47;99127.31;4963084;28;20042;-79
2021/11/02 10:51:21;;;;;;;5.25;2.90;;;;;;;12.79;73.60;99139.41;4959010;28;20031;-78
2021/11/02 10:53:58;;;;;;;7.22;2.95;;;;;;;12.81;72.44;99145.47;4942504;28;20383;-78
2021/11/02 10:56:58;;;;;;;6.38;2.67;;;;;;;12.72;73.92;99142.25;4971253;28;20509;-78
2021/11/02 10:59:27;;;;;;;6.82;3.40;;;;;;;12.94;72.21;99141.44;4973580;28;20065;-78
2021/11/02 11:01:55;;;;;;;8.10;3.03;;;;;;;13.04;71.00;99129.59;4949275;28;20030;-78
2021/11/02 11:04:23;;;;;;;6.57;2.10;;;;;;;12.89;69.96;99138.09;4968524;28;20047;-77
2021/11/02 11:06:54;;;;;;;6.35;2.70;;;;;;;12.86;70.29;99141.78;4969741;28;20035;-78
2021/11/02 11:09:21;;;;;;;8.18;2.42;;;;;;;12.75;70.35;99145.72;4956718;28;20031;-78
2021/11/02 11:11:53;;;;;;;7.65;2.58;;;;;;;12.78;71.34;99140.31;4963145;28;20039;-78
2021/11/02 11:14:27;;;;;;;5.47;2.20;;;;;;;12.75;70.44;99140.44;4960330;28;20412;-77
2021/11/02 11:16:56;;;;;;;9.15;3.65;;;;;;;12.56;70.37;99138.47;4967120;28;20031;-78
2021/11/02 11:19:39;;;;;;;6.07;2.60;;;;;;;12.38;71.42;99136.47;4972907;28;20027;-78
2021/11/02 11:22:10;;;;;;;4.90;2.42;;;;;;;12.46;71.03;99134.41;4961425;28;20113;-78
2021/11/02 11:24:55;;;;;;;6.22;2.80;;;;;;;12.52;70.57;99138.63;4955487;28;20038;-77
2021/11/02 11:27:22;;;;;;;6.28;3.10;;;;;;;12.53;71.14;99135.06;4963065;28;20050;-77
2021/11/02 11:29:49;;;;;;;7.90;3.60;;;;;;;12.46;70.74;99135.28;4965373;28;20110;-78
2021/11/02 11:32:17;;;;;;;6.97;2.53;;;;;;;12.49;70.60;99134.31;4967079;28;20042;-78
2021/11/02 11:34:45;;;;;;;8.15;3.35;;;;;;;12.68;69.85;99138.03;4938112;28;20058;-78
2021/11/02 11:37:12;;;;;;;16.88;7.63;;;;;;;12.76;71.45;99134.19;4947430;28;20060;-78
2021/11/02 11:39:38;;;;;;;6.70;2.67;;;;;;;13.01;69.80;99131.50;4965597;28;20109;-78
2021/11/02 11:42:04;;;;;;;10.20;3.63;;;;;;;13.01;69.24;99126.22;4966556;28;20494;-78
2021/11/02 11:44:32;;;;;;;7.50;2.83;;;;;;;13.10;69.22;99125.88;4967473;28;20034;-79
2021/11/02 11:47:12;;;;;;;3.90;2.17;;;;;;;13.19;69.38;99120.19;4949784;28;20122;-78
2021/11/02 11:49:40;;;;;;;5.65;2.45;;;;;;;13.16;68.84;99120.31;4962384;28;20036;-77
2021/11/02 11:52:08;;;;;;;5.30;2.58;;;;;;;13.58;68.45;99125.72;4964203;28;20043;-78
2021/11/02 11:58:05;;;;;;;6.95;2.70;;;;;;;13.83;66.66;99119.38;809189;23;20312;-78
2021/11/02 12:01:07;;;;;;;6.32;2.30;;;;;;;14.07;66.47;99124.56;5003005;28;20104;-80
2021/11/02 12:03:57;;;;;;;6.63;2.83;;;;;;;14.19;64.48;99126.72;5001865;28;20085;-78
2021/11/02 12:06:29;;;;;;;7.57;2.03;;;;;;;14.31;65.36;99123.53;5008925;28;20057;-78
2021/11/02 12:09:08;;;;;;;5.60;1.85;;;;;;;14.45;64.07;99129.09;5012338;28;20098;-78
2021/11/02 12:11:36;;;;;;;5.72;1.90;;;;;;;14.57;62.21;99126.88;5008140;28;20088;-79
2021/11/02 12:14:08;;;;;;;5.38;1.30;;;;;;;14.44;61.99;99127.38;4992593;28;20034;-78
2021/11/02 12:16:39;;;;;;;6.32;1.60;;;;;;;14.15;63.85;99131.28;5005638;28;20472;-77
2021/11/02 12:19:06;;;;;;;5.90;2.20;;;;;;;13.95;64.66;99128.63;4991520;28;20088;-79
2021/11/02 12:21:33;;;;;;;4.57;2.05;;;;;;;13.82;66.55;99130.94;5008617;28;20029;-78
2021/11/02 12:24:04;;;;;;;6.57;2.25;;;;;;;13.62;66.54;99123.78;4972128;28;20050;-79
2021/11/02 12:26:44;;;;;;;5.63;2.20;;;;;;;13.41;67.51;99130.81;4986002;28;20061;-78
2021/11/02 12:29:15;;;;;;;3.83;1.70;;;;;;;13.33;67.19;99133.78;4977832;28;20134;-79
2021/11/02 12:31:44;;;;;;;5.40;1.95;;;;;;;13.24;66.32;99127.97;4969598;28;20462;-79
2021/11/02 12:34:15;;;;;;;5.38;1.60;;;;;;;13.25;65.88;99132.31;5000079;28;20129;-78
2021/11/02 12:36:49;;;;;;;5.70;1.92;;;;;;;13.55;65.44;99133.78;5002322;28;20193;-78
2021/11/02 12:39:18;;;;;;;6.93;2.17;;;;;;;13.47;64.70;99130.59;5004036;28;20137;-78
2021/11/02 12:41:56;;;;;;;4.55;1.55;;;;;;;13.29;64.52;99132.19;4986463;28;20038;-78
2021/11/02 12:44:28;;;;;;;5.43;1.65;;;;;;;13.28;64.62;99119.88;4997564;28;20038;-78
2021/11/02 12:46:55;;;;;;;5.35;1.50;;;;;;;13.48;64.44;99127.00;5003400;28;20038;-78
2021/11/02 12:49:26;;;;;;;4.65;1.55;;;;;;;13.58;64.50;99123.06;5003089;28;20034;-79
2021/11/02 12:51:55;;;;;;;6.28;1.80;;;;;;;13.88;64.14;99125.34;5004088;28;20100;-79
2021/11/02 12:54:24;;;;;;;6.20;1.65;;;;;;;14.08;62.78;99123.66;5004728;28;20038;-79
2021/11/02 12:57:14;;;;;;;4.05;1.25;;;;;;;14.38;61.32;99121.44;5004570;28;20062;-79
2021/11/02 12:59:49;;;;;;;3.72;1.30;;;;;;;14.71;61.04;99121.78;4988193;28;20076;-79
2021/11/02 13:02:20;;;;;;;8.38;1.70;;;;;;;14.85;59.89;99129.09;5004692;28;20034;-78
2021/11/02 13:04:55;;;;;;;6.90;1.85;;;;;;;14.81;58.99;99123.09;4971246;28;20508;-79
2021/11/02 13:07:21;;;;;;;6.35;1.67;;;;;;;14.69;58.99;99123.63;5002265;28;20030;-78
2021/11/02 13:09:50;;;;;;;6.78;1.65;;;;;;;14.47;59.93;99127.22;4988443;28;20038;-79
2021/11/02 13:12:18;;;;;;;4.57;1.38;;;;;;;14.28;59.60;99122.78;4987026;28;20038;-78
2021/11/02 13:14:48;;;;;;;8.00;1.65;;;;;;;14.01;59.77;99123.91;5004936;28;20145;-78
2021/11/02 13:17:17;;;;;;;3.25;1.42;;;;;;;13.84;60.83;99126.44;4986877;28;20132;-79
2021/11/02 13:19:47;;;;;;;5.00;1.42;;;;;;;13.91;61.11;99130.56;4983326;28;20038;-78
2021/11/02 13:22:17;;;;;;;4.88;1.63;;;;;;;14.11;60.79;99120.88;4995391;28;20034;-78
2021/11/02 13:25:03;;;;;;;7.18;2.17;;;;;;;14.27;61.08;99127.22;5003604;28;20041;-79
2021/11/02 13:27:45;;;;;;;3.70;1.65;;;;;;;14.58;60.11;99125.91;5007064;28;20659;-77
2021/11/02 13:30:36;;;;;;;4.95;1.60;;;;;;;14.80;58.93;99132.00;4978035;28;20102;-78
2021/11/02 13:33:13;;;;;;;5.35;1.30;;;;;;;15.04;58.93;99129.13;4998802;28;20042;-78
2021/11/02 13:35:59;;;;;;;4.13;1.33;;;;;;;15.39;56.80;99123.94;4999443;28;20038;-79
2021/11/02 13:38:35;;;;;;;3.38;1.23;;;;;;;15.65;56.50;99127.97;4988129;28;20110;-79
2021/11/02 13:41:16;;;;;;;6.60;1.88;;;;;;;16.05;55.46;99121.53;4986767;28;20069;-79
2021/11/02 13:43:43;;;;;;;4.90;1.65;;;;;;;16.29;55.31;99126.53;4984470;28;20060;-79
2021/11/02 13:46:16;;;;;;;4.75;1.50;;;;;;;16.46;53.50;99123.88;4984890;28;20034;-79
2021/11/02 13:48:42;;;;;;;6.20;1.30;;;;;;;16.38;53.72;99126.09;4998456;28;20034;-79
2021/11/02 13:51:10;;;;;;;4.68;1.38;;;;;;;15.94;54.64;99123.91;4999099;28;20077;-79
2021/11/02 13:53:35;;;;;;;4.55;1.50;;;;;;;15.28;55.02;99132.44;4982610;28;20034;-79
2021/11/02 13:56:13;;;;;;;5.38;1.35;;;;;;;14.79;55.04;99132.06;5002511;28;20038;-79
2021/11/02 13:58:39;;;;;;;3.75;1.20;;;;;;;14.20;57.69;99131.06;4981409;28;20048;-79
2021/11/02 14:01:12;;;;;;;5.57;1.40;;;;;;;13.87;58.22;99130.75;4991413;28;20046;-79
2021/11/02 14:03:45;;;;;;;7.22;1.88;;;;;;;13.52;60.04;99133.94;4999456;28;20042;-79
2021/11/02 14:06:11;;;;;;;5.32;1.67;;;;;;;13.45;60.82;99132.44;5005098;28;20406;-78
2021/11/02 14:08:39;;;;;;;4.10;1.52;;;;;;;13.31;61.66;99143.59;4969530;28;20035;-79
2021/11/02 14:11:24;;;;;;;3.80;1.30;;;;;;;13.20;62.34;99147.53;4984990;28;20018;-77
2021/11/02 14:13:50;;;;;;;4.90;1.60;;;;;;;13.16;62.39;99136.22;4997161;28;20081;-79
2021/11/02 14:16:29;;;;;;;4.05;1.40;;;;;;;13.14;62.88;99133.59;5002165;28;20033;-78
2021/11/02 14:18:56;;;;;;;4.45;1.40;;;;;;;13.11;63.24;99135.53;4989095;28;20116;-79
2021/11/02 14:21:43;;;;;;;4.28;1.67;;;;;;;13.03;64.18;99135.81;4984507;28;20058;-78
2021/11/02 14:24:08;;;;;;;4.28;2.00;;;;;;;12.91;64.99;99131.84;5000741;28;20031;-78
2021/11/02 14:26:50;;;;;;;5.80;1.98;;;;;;;12.79;65.86;99137.63;4983453;28;20062;-78
2021/11/02 14:29:18;;;;;;;4.10;1.75;;;;;;;12.65;66.05;99139.91;4982657;28;20090;-78
2021/11/02 14:31:47;;;;;;;7.40;4.13;;;;;;;12.58;66.15;99138.41;4980893;28;20065;-78
2021/11/02 14:34:28;;;;;;;6.10;2.55;;;;;;;12.44;67.38;99141.53;4995856;28;20030;-77
2021/11/02 14:37:12;;;;;;;6.10;2.70;;;;;;;12.32;68.11;99144.66;4997781;28;20045;-79
2021/11/02 14:39:55;;;;;;;6.03;2.75;;;;;;;12.23;68.31;99146.66;5002021;28;20038;-78
2021/11/02 14:42:41;;;;;;;5.18;2.08;;;;;;;12.11;68.76;99147.13;4987766;28;20113;-78
2021/11/02 14:45:11;;;;;;;4.90;2.60;;;;;;;12.07;69.00;99140.19;4987482;28;20094;-78
2021/11/02 14:47:38;;;;;;;6.13;2.20;;;;;;;12.04;69.42;99142.94;4989811;28;20062;-78
2021/11/02 14:50:24;;;;;;;7.10;2.70;;;;;;;11.99;69.76;99152.81;4977142;28;20031;-78
2021/11/02 14:52:50;;;;;;;6.75;2.80;;;;;;;11.88;70.68;99147.03;4995662;28;20267;-79
2021/11/02 14:55:47;;;;;;;5.78;2.40;;;;;;;11.81;71.33;99149.81;4995187;28;20057;-78
2021/11/02 14:58:52;;;;;;;6.25;2.83;;;;;;;11.85;71.68;99154.09;4999473;28;20040;-79
2021/11/02 15:01:38;;;;;;;5.53;2.47;;;;;;;11.89;71.48;99156.69;4997929;28;20046;-78
2021/11/02 15:04:09;;;;;;;5.25;2.47;;;;;;;11.90;71.76;99158.44;4998779;28;20034;-78
2021/11/02 15:06:38;;;;;;;7.93;3.20;;;;;;;11.91;71.64;99150.44;4975399;28;20096;-78
2021/11/02 15:09:25;;;;;;;5.78;2.70;;;;;;;11.90;71.80;99155.78;4989642;28;20035;-79
2021/11/02 15:11:51;;;;;;;5.30;2.38;;;;;;;11.91;72.39;99165.44;4993573;28;20048;-78
2021/11/02 15:14:20;;;;;;;8.13;2.63;;;;;;;11.86;72.36;99157.66;4992984;28;20374;-77
2021/11/02 15:16:48;;;;;;;8.13;4.03;;;;;;;11.83;72.39;99161.22;4972593;28;20117;-77
2021/11/02 15:19:15;;;;;;;8.15;4.38;;;;;;;11.80;72.67;99160.47;4974169;28;20042;-77
2021/11/02 15:21:45;;;;;;;6.25;3.20;;;;;;;11.81;72.82;99165.69;4976364;28;20111;-76
2021/11/02 15:24:22;;;;;;;10.48;3.47;;;;;;;11.80;72.58;99157.81;5001693;28;20030;-80
2021/11/02 15:27:14;;;;;;;6.57;3.10;;;;;;;11.87;72.66;99161.16;4995566;28;20090;-78
2021/11/02 15:30:02;;;;;;;7.20;3.17;;;;;;;11.88;72.44;99163.75;4995191;28;20078;-77
2021/11/02 15:32:34;;;;;;;7.88;3.20;;;;;;;11.92;72.38;99169.78;4990191;28;20057;-77
2021/11/02 15:35:04;;;;;;;9.15;3.13;;;;;;;11.96;72.04;99168.78;4973642;28;20034;-77
2021/11/02 15:37:38;;;;;;;6.75;3.17;;;;;;;11.92;72.69;99175.06;4992322;28;20030;-76
2021/11/02 15:40:06;;;;;;;6.80;3.63;;;;;;;11.90;72.83;99166.34;4992855;28;20073;-77
2021/11/02 15:42:34;;;;;;;5.35;3.03;;;;;;;11.95;72.46;99170.56;4991678;28;20037;-77
2021/11/02 15:45:12;;;;;;;5.80;3.40;;;;;;;11.98;72.56;99170.47;4994090;28;20030;-78
2021/11/02 15:47:48;;;;;;;9.25;3.40;;;;;;;11.95;72.82;99175.84;4974412;28;20030;-77
2021/11/02 15:50:25;;;;;;;5.50;3.17;;;;;;;11.97;72.28;99178.44;4994515;28;20077;-78
2021/11/02 15:52:58;;;;;;;8.43;3.97;;;;;;;11.85;72.64;99175.25;4996444;28;20040;-77
2021/11/02 15:55:25;;;;;;;8.13;4.38;;;;;;;11.81;72.91;99184.19;4998405;28;20035;-77
2021/11/02 15:57:55;;;;;;;8.15;4.25;;;;;;;11.83;72.53;99173.59;5007390;28;20092;-77
2021/11/02 16:00:26;;;;;;;8.77;3.78;;;;;;;11.79;72.19;99180.75;5009614;28;20038;-77
2021/11/02 16:02:52;;;;;;;8.23;3.80;;;;;;;11.60;72.86;99190.19;4972414;28;20408;-78
2021/11/02 16:05:20;;;;;;;7.90;3.88;;;;;;;11.62;72.73;99191.84;4994712;28;20043;-78
2021/11/02 16:07:45;;;;;;;7.20;3.50;;;;;;;11.61;73.15;99191.91;4989108;28;20038;-78
2021/11/02 16:10:12;;;;;;;6.10;2.60;;;;;;;11.63;72.64;99192.72;4994645;28;20092;-77
2021/11/02 16:12:40;;;;;;;7.28;3.08;;;;;;;11.59;72.66;99197.25;4972495;28;20442;-77
2021/11/02 16:15:05;;;;;;;8.05;3.15;;;;;;;11.58;72.15;99194.63;5000815;28;20092;-78
2021/11/02 16:17:38;;;;;;;5.82;2.45;;;;;;;11.55;72.10;99194.75;4993492;28;20042;-78
2021/11/02 16:20:04;;;;;;;5.90;2.42;;;;;;;11.54;72.75;99190.38;5001157;28;20093;-78
2021/11/02 16:22:30;;;;;;;6.07;2.60;;;;;;;11.50;72.57;99196.66;4991737;28;20022;-78
2021/11/02 16:25:09;;;;;;;6.32;2.63;;;;;;;11.43;72.65;99196.00;5004723;28;20041;-77
2021/11/02 16:27:35;;;;;;;5.78;2.38;;;;;;;11.40;72.49;99207.53;4999970;28;20030;-77
2021/11/02 16:30:15;;;;;;;17.45;11.98;;;;;;;11.34;72.82;99202.44;5002941;28;20026;-78
2021/11/02 16:32:43;;;;;;;7.93;4.60;;;;;;;11.32;72.53;99201.63;5002664;28;20044;-78
2021/11/02 16:35:08;;;;;;;5.13;2.60;;;;;;;11.29;71.80;99207.00;5003158;28;20033;-78
2021/11/02 16:37:37;;;;;;;4.93;2.33;;;;;;;11.22;70.96;99204.59;5005026;28;20033;-77
2021/11/02 16:40:24;;;;;;;4.38;2.00;;;;;;;11.13;70.91;99203.06;5003578;28;20061;-78
2021/11/02 16:42:55;;;;;;;4.97;2.28;;;;;;;11.16;70.80;99206.50;5001069;28;20122;-79
2021/11/02 16:45:22;;;;;;;5.73;2.73;;;;;;;11.15;71.48;99209.16;5005035;28;20038;-79
2021/11/02 16:47:54;;;;;;;8.07;2.90;;;;;;;11.18;71.11;99211.72;5002052;28;20459;-78